createdAt,value
2022-12-12T11:49:52.965Z,54.79
2022-12-12T11:52:21.734Z,54.82
2022-12-12T11:54:49.346Z,54.82
2022-12-12T11:57:20.019Z,54.90
2022-12-12T11:59:50.536Z,54.88
2022-12-12T12:02:33.017Z,54.81
2022-12-12T12:05:04.252Z,54.82
2022-12-12T12:07:35.695Z,54.79
2022-12-12T12:10:04.428Z,54.76
2022-12-12T12:12:35.212Z,54.67
2022-12-12T12:15:05.310Z,54.61
2022-12-12T12:17:38.551Z,54.67
2022-12-12T12:20:09.195Z,54.74
2022-12-12T12:22:41.120Z,54.62
2022-12-12T12:25:23.614Z,54.70
2022-12-12T12:27:53.139Z,54.64
2022-12-12T12:30:21.434Z,54.71
2022-12-12T12:32:57.826Z,54.66
2022-12-12T12:35:29.713Z,54.63
2022-12-12T12:38:00.536Z,54.61
2022-12-12T12:40:32.065Z,54.69
2022-12-12T12:43:03.039Z,54.58
2022-12-12T12:45:33.214Z,54.73
2022-12-12T12:48:07.192Z,54.77
2022-12-12T12:50:39.454Z,54.83
2022-12-12T12:53:08.058Z,54.88
2022-12-12T12:55:36.693Z,54.82
2022-12-12T12:58:04.572Z,54.92
2022-12-12T13:00:32.126Z,54.88
2022-12-12T13:03:00.328Z,54.81
2022-12-12T13:05:30.218Z,54.88
2022-12-12T13:08:02.231Z,54.80
2022-12-12T13:10:30.136Z,54.87
2022-12-12T13:12:58.717Z,54.82
2022-12-12T13:15:27.435Z,54.83
2022-12-12T13:17:57.110Z,54.78
2022-12-12T13:20:25.628Z,54.82
2022-12-12T13:22:56.517Z,54.82
2022-12-12T13:25:28.762Z,54.78
2022-12-12T13:27:56.470Z,54.76
2022-12-12T13:30:25.072Z,54.78
2022-12-12T13:32:57.016Z,54.76
2022-12-12T13:35:26.155Z,54.76
2022-12-12T13:37:53.718Z,54.75
2022-12-12T13:40:25.891Z,54.72
2022-12-12T13:42:56.086Z,54.75
2022-12-12T13:45:36.803Z,54.80
2022-12-12T13:48:05.090Z,54.78
2022-12-12T13:50:32.677Z,54.71
2022-12-12T13:53:17.612Z,54.69
2022-12-12T13:55:45.221Z,54.76
2022-12-12T13:58:21.466Z,54.63
2022-12-12T14:00:49.142Z,54.67
2022-12-12T14:03:19.706Z,54.67
2022-12-12T14:05:47.534Z,54.62
2022-12-12T14:08:20.949Z,54.74
2022-12-12T14:10:58.523Z,54.79
2022-12-12T14:13:35.225Z,54.80
2022-12-12T14:16:05.383Z,54.67
2022-12-12T14:18:34.412Z,54.71
2022-12-12T14:21:03.680Z,54.92
2022-12-12T14:23:31.519Z,54.91
2022-12-12T14:25:59.810Z,54.85
2022-12-12T14:28:27.582Z,54.93
2022-12-12T14:30:57.893Z,54.96
2022-12-12T14:33:40.345Z,54.89
2022-12-12T14:36:18.030Z,54.83
2022-12-12T14:38:47.307Z,54.77
2022-12-12T14:41:15.432Z,54.80
2022-12-12T14:43:43.513Z,54.83
2022-12-12T14:46:15.447Z,54.92
2022-12-12T14:48:43.952Z,54.79
2022-12-12T14:51:12.043Z,54.87
2022-12-12T14:53:44.655Z,54.80
2022-12-12T14:56:12.703Z,54.80
2022-12-12T14:58:41.039Z,54.78
2022-12-12T15:01:08.761Z,54.86
2022-12-12T15:03:38.984Z,54.83
2022-12-12T15:06:25.457Z,54.84
2022-12-12T15:08:53.349Z,54.77
2022-12-12T15:11:22.050Z,54.77
2022-12-12T15:13:53.673Z,54.72
2022-12-12T15:16:21.510Z,54.72
2022-12-12T15:18:51.304Z,54.78
2022-12-12T15:21:18.886Z,54.73
2022-12-12T15:23:46.475Z,54.86
2022-12-12T15:26:15.856Z,54.81
2022-12-12T15:28:43.667Z,54.71
2022-12-12T15:31:11.314Z,54.81
2022-12-12T15:33:39.195Z,54.73
2022-12-12T15:36:17.461Z,54.69
2022-12-12T15:38:46.578Z,54.79
2022-12-12T15:41:14.200Z,54.78
2022-12-12T15:43:43.107Z,54.76
2022-12-12T15:46:15.114Z,54.76
2022-12-12T15:48:43.078Z,54.74
2022-12-12T15:51:10.825Z,54.74
2022-12-12T15:53:40.529Z,54.89
2022-12-12T15:56:09.318Z,54.89
2022-12-12T15:58:37.764Z,54.93
2022-12-12T16:01:07.028Z,54.87
2022-12-12T16:03:35.127Z,54.90
2022-12-12T16:06:06.832Z,54.85
2022-12-12T16:08:46.577Z,54.80
2022-12-12T16:11:32.179Z,54.85
2022-12-12T16:13:59.761Z,54.88
2022-12-12T16:16:38.052Z,54.81
2022-12-12T16:19:06.287Z,54.80
2022-12-12T16:21:36.807Z,54.83
2022-12-12T16:24:13.149Z,54.92
2022-12-12T16:26:40.747Z,54.79
2022-12-12T16:29:08.343Z,54.74
2022-12-12T16:31:36.302Z,54.71
2022-12-12T16:34:04.386Z,54.78
2022-12-12T16:36:35.697Z,54.67
2022-12-12T16:39:07.585Z,54.80
2022-12-12T16:41:36.558Z,54.81
2022-12-12T16:44:04.410Z,54.78
2022-12-12T16:46:32.013Z,54.79
2022-12-12T16:49:04.423Z,54.75
2022-12-12T16:51:33.477Z,54.91
2022-12-12T16:54:01.111Z,54.66
2022-12-12T16:56:28.701Z,54.71
2022-12-12T16:58:57.721Z,54.79
2022-12-12T17:01:25.417Z,54.75
2022-12-12T17:03:53.372Z,54.78
2022-12-12T17:06:20.981Z,54.82
2022-12-12T17:08:48.583Z,54.82
2022-12-12T17:11:16.211Z,54.75
2022-12-12T17:13:45.601Z,54.74
2022-12-12T17:16:14.660Z,54.65
2022-12-12T17:18:42.320Z,54.68
2022-12-12T17:21:09.930Z,54.78
2022-12-12T17:23:37.570Z,54.80
2022-12-12T17:26:05.261Z,54.77
2022-12-12T17:28:33.213Z,54.70
2022-12-12T17:31:00.966Z,54.79
2022-12-12T17:33:30.098Z,54.80
2022-12-12T17:35:58.271Z,54.83
2022-12-12T17:38:25.926Z,54.84
2022-12-12T17:40:56.636Z,54.90
2022-12-12T17:43:24.792Z,54.93
2022-12-12T17:45:59.590Z,54.78
2022-12-12T17:48:28.297Z,54.79
2022-12-12T17:51:00.713Z,54.76
2022-12-12T17:53:32.037Z,54.81
2022-12-12T17:56:01.267Z,54.79
2022-12-12T17:58:34.903Z,54.80
2022-12-12T18:01:02.567Z,54.87
2022-12-12T18:03:30.557Z,54.75
2022-12-12T18:06:01.915Z,54.75
2022-12-12T18:08:29.648Z,54.75
2022-12-12T18:10:57.278Z,54.70
2022-12-12T18:13:25.132Z,54.75
2022-12-12T18:15:54.837Z,54.70
2022-12-12T18:18:22.494Z,54.70
2022-12-12T18:20:50.150Z,54.65
2022-12-12T18:23:19.074Z,54.75
2022-12-12T18:25:46.732Z,54.74
2022-12-12T18:28:14.354Z,54.71
2022-12-12T18:30:42.061Z,54.71
2022-12-12T18:33:09.973Z,54.74
2022-12-12T18:35:37.522Z,54.71
2022-12-12T18:38:05.238Z,54.69
2022-12-12T18:40:34.295Z,54.71
2022-12-12T18:43:01.887Z,54.70
2022-12-12T18:45:29.714Z,54.66
2022-12-12T18:47:57.425Z,54.61
2022-12-12T18:50:25.061Z,54.65
2022-12-12T18:52:52.658Z,54.62
2022-12-12T18:55:20.307Z,54.73
2022-12-12T18:57:49.288Z,54.63
2022-12-12T19:00:17.789Z,54.70
2022-12-12T19:02:45.409Z,54.66
2022-12-12T19:05:14.379Z,54.70
2022-12-12T19:07:42.041Z,54.72
2022-12-12T19:10:10.045Z,54.75
2022-12-12T19:12:37.864Z,54.77
2022-12-12T19:15:16.746Z,54.80
2022-12-12T19:17:45.098Z,54.89
2022-12-12T19:20:13.946Z,54.94
2022-12-12T19:22:46.284Z,54.81
2022-12-12T19:25:14.872Z,54.83
2022-12-12T19:27:42.513Z,54.78
2022-12-12T19:30:13.053Z,54.75
2022-12-12T19:32:41.143Z,54.75
2022-12-12T19:35:09.958Z,54.79
2022-12-12T19:37:37.588Z,54.76
2022-12-12T19:40:05.878Z,54.66
2022-12-12T19:42:33.486Z,54.77
2022-12-12T19:45:01.060Z,54.75
2022-12-12T19:47:30.058Z,54.68
2022-12-12T19:49:57.659Z,54.68
2022-12-12T19:52:25.383Z,54.63
2022-12-12T19:54:53.201Z,54.75
2022-12-12T19:57:21.052Z,54.70
2022-12-12T19:59:50.159Z,54.66
2022-12-12T20:02:17.872Z,54.69
2022-12-12T20:04:47.204Z,54.73
2022-12-12T20:07:14.798Z,54.63
2022-12-12T20:09:42.427Z,54.59
2022-12-12T20:12:10.361Z,54.70
2022-12-12T20:14:37.966Z,54.72
2022-12-12T20:17:05.612Z,54.66
2022-12-12T20:19:33.206Z,54.67
2022-12-12T20:22:03.379Z,54.75
2022-12-12T20:24:31.647Z,54.63
2022-12-12T20:26:59.621Z,54.68
2022-12-12T20:29:27.526Z,54.72
2022-12-12T20:31:55.133Z,54.81
2022-12-12T20:34:25.016Z,54.61
2022-12-12T20:36:55.003Z,54.66
2022-12-12T20:39:25.041Z,42.62
2022-12-12T20:41:53.481Z,50.51
2022-12-12T20:44:22.499Z,51.98
2022-12-12T20:46:50.188Z,51.77
2022-12-12T20:49:18.625Z,51.21
2022-12-12T20:51:55.503Z,51.42
2022-12-12T20:54:25.302Z,51.48
2022-12-12T20:56:53.108Z,51.64
2022-12-12T20:59:20.732Z,51.73
2022-12-12T21:01:48.401Z,51.98
2022-12-12T21:04:16.083Z,52.15
2022-12-12T21:06:44.409Z,52.45
2022-12-12T21:09:16.173Z,52.35
2022-12-12T21:11:48.310Z,52.43
2022-12-12T21:14:15.907Z,52.71
2022-12-12T21:16:43.636Z,52.63
2022-12-12T21:19:12.441Z,52.86
2022-12-12T21:21:40.144Z,52.90
2022-12-12T21:24:08.061Z,52.86
2022-12-12T21:26:35.701Z,53.03
2022-12-12T21:29:04.823Z,52.92
2022-12-12T21:31:33.133Z,53.13
2022-12-12T21:34:00.907Z,53.30
2022-12-12T21:36:28.937Z,53.18
2022-12-12T21:38:56.910Z,53.06
2022-12-12T21:41:24.562Z,53.22
2022-12-12T21:43:53.375Z,53.39
2022-12-12T21:46:22.673Z,53.20
2022-12-12T21:49:10.460Z,53.28
2022-12-12T21:51:38.252Z,53.29
2022-12-12T21:54:06.142Z,53.47
2022-12-12T21:56:33.736Z,53.37
2022-12-12T21:59:01.315Z,53.21
2022-12-12T22:01:30.940Z,53.21
2022-12-12T22:03:58.724Z,53.35
2022-12-12T22:06:28.123Z,53.46
2022-12-12T22:08:56.114Z,53.54
2022-12-12T22:11:40.414Z,53.60
2022-12-12T22:14:11.847Z,53.80
2022-12-12T22:16:41.175Z,53.71
2022-12-12T22:19:09.117Z,53.79
2022-12-12T22:21:36.852Z,53.84
2022-12-12T22:24:04.835Z,53.94
2022-12-12T22:26:33.226Z,53.90
2022-12-12T22:29:01.865Z,53.93
2022-12-12T22:31:29.877Z,53.96
2022-12-12T22:34:00.553Z,53.99
2022-12-12T22:36:28.739Z,54.08
2022-12-12T22:38:56.489Z,54.10
2022-12-12T22:41:25.878Z,54.10
2022-12-12T22:43:55.074Z,54.05
2022-12-12T22:46:22.961Z,54.13
2022-12-12T22:48:50.607Z,54.12
2022-12-12T22:51:20.233Z,54.10
2022-12-12T22:53:47.809Z,54.11
2022-12-12T22:56:15.461Z,54.11
2022-12-12T22:58:43.462Z,54.09
2022-12-12T23:01:11.539Z,54.14
2022-12-12T23:03:39.432Z,54.24
2022-12-12T23:06:07.679Z,54.27
2022-12-12T23:08:36.588Z,54.26
2022-12-12T23:11:07.904Z,54.35
2022-12-12T23:13:35.938Z,54.34
2022-12-12T23:16:07.356Z,54.29
2022-12-12T23:18:36.385Z,54.37
2022-12-12T23:21:04.795Z,54.35
2022-12-12T23:23:34.158Z,54.33
2022-12-12T23:26:03.804Z,54.32
2022-12-12T23:28:31.385Z,54.41
2022-12-12T23:45:40.674Z,54.59
2022-12-12T23:48:08.329Z,54.58
2022-12-12T23:50:36.084Z,54.66
2022-12-12T23:53:09.040Z,54.69
2022-12-12T23:55:38.313Z,54.64
2022-12-12T23:58:05.963Z,54.75
